Time;durP1;ratioP1;P1;durP2;ratioP2;P2;SDS_P1;SDS_P2;PMS_P1;PMS_P2;Temp;Humidity;BMP_temperature;BMP_pressure;BME280_temperature;BME280_humidity;BME280_pressure;Samples;Min_cycle;Max_cycle;Signal;HPM_P1;HPM_P2
2023/10/26 00:01:35;;;;;;;0.35;0.35;;;18.90;81.50;;;;;;5113476;28;20270;-71
2023/10/26 00:04:01;;;;;;;0.70;0.70;;;18.90;81.50;;;;;;5093399;28;20208;-71
2023/10/26 00:06:27;;;;;;;0.68;0.60;;;18.90;81.50;;;;;;5093987;28;20530;-71
2023/10/26 00:08:52;;;;;;;0.95;0.50;;;19.00;81.70;;;;;;5113443;28;20179;-71
2023/10/26 00:11:18;;;;;;;0.50;0.50;;;19.00;81.70;;;;;;5095275;28;20195;-71
2023/10/26 00:13:44;;;;;;;0.40;0.40;;;18.90;81.50;;;;;;5089493;28;20186;-71
2023/10/26 00:16:09;;;;;;;0.50;0.50;;;18.90;81.50;;;;;;5110601;28;20208;-71
2023/10/26 00:18:35;;;;;;;1.48;0.60;;;18.90;81.60;;;;;;5092299;28;20182;-71
2023/10/26 00:21:01;;;;;;;0.88;0.70;;;18.90;81.50;;;;;;5112115;28;20187;-71
2023/10/26 00:23:27;;;;;;;0.75;0.63;;;18.90;81.60;;;;;;5094732;28;20176;-71
2023/10/26 00:25:53;;;;;;;0.50;0.50;;;18.90;81.60;;;;;;5107251;28;20199;-71
2023/10/26 00:28:20;;;;;;;0.65;0.65;;;18.90;81.60;;;;;;5092285;28;20215;-71
2023/10/26 00:30:46;;;;;;;0.52;0.50;;;18.90;82.30;;;;;;5075903;28;20172;-71
2023/10/26 00:33:12;;;;;;;0.45;0.45;;;18.90;81.60;;;;;;5093388;28;20226;-71
2023/10/26 00:35:38;;;;;;;0.30;0.30;;;18.90;81.60;;;;;;5070936;28;20206;-71
2023/10/26 00:38:04;;;;;;;0.60;0.60;;;18.90;81.60;;;;;;5077784;28;20183;-71
2023/10/26 00:40:29;;;;;;;0.50;0.50;;;18.90;81.60;;;;;;5111746;28;20184;-71
2023/10/26 00:43:00;;;;;;;1.05;0.55;;;18.90;81.50;;;;;;5071709;28;20591;-71
2023/10/26 00:45:33;;;;;;;1.17;0.40;;;18.90;81.50;;;;;;5093969;28;20212;-71
2023/10/26 00:48:00;;;;;;;0.70;0.60;;;18.90;81.50;;;;;;5094718;28;20746;-71
2023/10/26 00:50:28;;;;;;;0.50;0.50;;;18.90;81.50;;;;;;5094415;28;20191;-71
2023/10/26 00:52:55;;;;;;;0.55;0.50;;;18.90;81.50;;;;;;5094318;28;20603;-71
2023/10/26 00:55:24;;;;;;;1.02;0.63;;;18.90;81.50;;;;;;5094187;28;20211;-71
2023/10/26 00:57:50;;;;;;;0.70;0.50;;;18.90;81.50;;;;;;5094244;28;20232;-71
2023/10/26 01:00:16;;;;;;;0.52;0.45;;;18.90;81.50;;;;;;5093612;28;20187;-71
2023/10/26 01:02:42;;;;;;;0.52;0.50;;;18.90;81.50;;;;;;5094168;28;20183;-71
2023/10/26 01:05:08;;;;;;;0.77;0.57;;;18.90;81.50;;;;;;5068308;28;20208;-71
2023/10/26 01:07:34;;;;;;;0.68;0.50;;;18.90;81.50;;;;;;5076882;28;20751;-71
2023/10/26 01:10:00;;;;;;;0.60;0.60;;;18.90;81.50;;;;;;5094403;28;20187;-71
2023/10/26 01:12:26;;;;;;;0.60;0.60;;;19.00;81.60;;;;;;5076500;28;20267;-70
2023/10/26 01:14:52;;;;;;;0.50;0.50;;;18.90;81.50;;;;;;5093911;28;20283;-71
2023/10/26 01:17:18;;;;;;;0.50;0.50;;;18.90;81.50;;;;;;5077039;28;20213;-71
2023/10/26 01:19:50;;;;;;;1.42;0.55;;;18.90;81.50;;;;;;5093996;28;20195;-71
2023/10/26 01:22:16;;;;;;;0.55;0.45;;;19.00;81.60;;;;;;5093624;28;20187;-71
2023/10/26 01:24:41;;;;;;;0.77;0.60;;;18.90;81.40;;;;;;5093575;28;20294;-71
2023/10/26 01:27:07;;;;;;;0.45;0.45;;;18.90;81.50;;;;;;5093953;28;20206;-71
2023/10/26 01:29:33;;;;;;;0.95;0.50;;;18.90;81.50;;;;;;5109488;28;20188;-71
2023/10/26 01:31:59;;;;;;;0.40;0.40;;;18.90;81.40;;;;;;5111347;28;20187;-72
2023/10/26 01:34:26;;;;;;;0.82;0.70;;;18.90;81.40;;;;;;5093481;28;20196;-72
2023/10/26 01:36:51;;;;;;;0.40;0.40;;;18.90;81.40;;;;;;5093722;28;20714;-72
2023/10/26 01:39:18;;;;;;;0.75;0.50;;;18.90;81.40;;;;;;5093651;28;20194;-72
2023/10/26 01:41:46;;;;;;;0.50;0.50;;;18.90;81.40;;;;;;5110784;28;20283;-72
2023/10/26 01:44:12;;;;;;;0.65;0.60;;;18.90;81.40;;;;;;5093530;28;20230;-73
2023/10/26 01:46:38;;;;;;;0.68;0.45;;;18.90;81.40;;;;;;5111833;28;20211;-72
2023/10/26 01:49:04;;;;;;;0.50;0.50;;;18.90;81.40;;;;;;5086341;28;20184;-72
2023/10/26 01:51:30;;;;;;;0.47;0.40;;;18.90;81.40;;;;;;5074632;28;20180;-72
2023/10/26 01:53:56;;;;;;;0.40;0.40;;;18.90;81.50;;;;;;5097073;28;20184;-72
2023/10/26 01:56:22;;;;;;;1.05;0.63;;;18.90;81.40;;;;;;5083172;28;20184;-72
2023/10/26 01:58:47;;;;;;;1.95;0.60;;;18.90;81.40;;;;;;5073412;28;20192;-72
2023/10/26 02:01:13;;;;;;;0.40;0.40;;;18.90;81.40;;;;;;5090082;28;20184;-72
2023/10/26 02:03:39;;;;;;;0.30;0.30;;;18.90;81.40;;;;;;5101484;28;20169;-72
2023/10/26 02:06:05;;;;;;;0.30;0.30;;;18.90;81.40;;;;;;5111534;28;20588;-72
2023/10/26 02:08:31;;;;;;;0.52;0.50;;;18.90;81.40;;;;;;5075722;28;20220;-72
2023/10/26 02:10:57;;;;;;;0.65;0.55;;;18.90;81.40;;;;;;5093427;28;20294;-72
2023/10/26 02:13:23;;;;;;;0.98;0.50;;;18.90;81.40;;;;;;5092395;28;20188;-72
2023/10/26 02:15:48;;;;;;;0.50;0.40;;;18.90;81.40;;;;;;5073319;28;20197;-72
2023/10/26 02:18:15;;;;;;;0.73;0.43;;;18.90;81.40;;;;;;5090701;28;20240;-71
2023/10/26 02:20:41;;;;;;;0.20;0.20;;;18.90;81.30;;;;;;5074243;28;20185;-72
2023/10/26 02:23:06;;;;;;;0.73;0.60;;;18.90;81.30;;;;;;5089069;28;20206;-72
2023/10/26 02:25:32;;;;;;;0.50;0.50;;;18.90;81.20;;;;;;5067448;28;20212;-72
2023/10/26 02:27:58;;;;;;;0.50;0.45;;;18.90;81.30;;;;;;5089913;28;20211;-72
2023/10/26 02:30:24;;;;;;;0.82;0.50;;;18.90;81.30;;;;;;5078914;28;20188;-72
2023/10/26 02:32:50;;;;;;;0.40;0.40;;;18.90;81.20;;;;;;5093316;28;20259;-72
2023/10/26 02:35:16;;;;;;;0.40;0.40;;;18.90;81.30;;;;;;5076245;28;20231;-72
2023/10/26 02:37:42;;;;;;;0.60;0.60;;;18.90;81.10;;;;;;5085025;28;20275;-71
2023/10/26 02:40:28;;;;;;;0.60;0.40;;;18.90;81.20;;;;;;5073076;28;20185;-72
2023/10/26 02:42:54;;;;;;;0.50;0.50;;;18.90;81.20;;;;;;5081575;28;20184;-71
2023/10/26 02:45:19;;;;;;;0.30;0.30;;;18.90;81.20;;;;;;5070218;28;20209;-71
2023/10/26 02:47:45;;;;;;;0.50;0.50;;;18.90;81.20;;;;;;5080291;28;20219;-72
2023/10/26 02:50:11;;;;;;;0.40;0.40;;;18.90;81.20;;;;;;5076543;28;20251;-72
2023/10/26 02:52:37;;;;;;;0.32;0.30;;;18.90;81.10;;;;;;5103381;28;20184;-71
2023/10/26 02:55:05;;;;;;;0.50;0.50;;;18.90;81.10;;;;;;5083912;28;20205;-72
2023/10/26 02:57:31;;;;;;;0.60;0.50;;;18.90;81.20;;;;;;5069777;28;20196;-72
2023/10/26 02:59:57;;;;;;;0.43;0.43;;;18.90;81.10;;;;;;5061625;28;20184;-72
2023/10/26 03:02:23;;;;;;;0.40;0.40;;;18.90;81.30;;;;;;5068884;28;20192;-72
2023/10/26 03:04:49;;;;;;;0.50;0.50;;;18.90;81.10;;;;;;5061381;28;20224;-72
2023/10/26 03:07:22;;;;;;;0.50;0.50;;;18.90;81.10;;;;;;5085303;28;20221;-72
2023/10/26 03:09:52;;;;;;;0.47;0.47;;;18.90;81.20;;;;;;5092556;28;20220;-72
2023/10/26 03:12:19;;;;;;;0.85;0.57;;;18.90;81.10;;;;;;5077917;28;20185;-72
2023/10/26 03:14:45;;;;;;;0.52;0.52;;;18.90;81.10;;;;;;5079478;28;20299;-72
2023/10/26 03:17:15;;;;;;;0.47;0.40;;;18.90;81.10;;;;;;5089256;28;20789;-72
2023/10/26 03:19:44;;;;;;;0.60;0.60;;;18.90;81.10;;;;;;5085817;28;20240;-72
2023/10/26 03:22:10;;;;;;;0.40;0.40;;;18.90;81.10;;;;;;5085928;28;20188;-71
2023/10/26 03:24:37;;;;;;;0.60;0.40;;;18.90;80.90;;;;;;5083288;28;20638;-72
2023/10/26 03:27:04;;;;;;;1.23;0.40;;;18.90;81.00;;;;;;5096530;28;20216;-72
2023/10/26 03:29:29;;;;;;;0.60;0.60;;;18.90;81.10;;;;;;5105074;28;20180;-71
2023/10/26 03:31:56;;;;;;;0.47;0.47;;;18.90;81.00;;;;;;5077441;28;20559;-71
2023/10/26 03:34:21;;;;;;;0.40;0.40;;;18.90;81.00;;;;;;5075284;28;20213;-72
2023/10/26 03:36:47;;;;;;;0.65;0.40;;;18.90;81.00;;;;;;5078438;28;20208;-71
2023/10/26 03:39:13;;;;;;;0.40;0.40;;;18.90;81.10;;;;;;5088146;28;20193;-71
2023/10/26 03:41:39;;;;;;;0.43;0.43;;;18.90;81.00;;;;;;5065774;28;20184;-72
2023/10/26 03:44:07;;;;;;;0.40;0.40;;;18.80;80.80;;;;;;5077601;28;20206;-71
2023/10/26 03:46:32;;;;;;;0.40;0.40;;;18.90;81.00;;;;;;5080563;28;20274;-71
2023/10/26 03:48:58;;;;;;;0.45;0.35;;;18.90;81.00;;;;;;5073678;28;20305;-72
2023/10/26 03:51:24;;;;;;;0.50;0.50;;;18.80;80.90;;;;;;5080461;28;20189;-72
2023/10/26 03:53:50;;;;;;;0.45;0.45;;;18.90;81.00;;;;;;5066458;28;20189;-72
2023/10/26 03:56:16;;;;;;;0.50;0.50;;;18.80;80.70;;;;;;5067380;28;20196;-72
2023/10/26 03:58:42;;;;;;;0.65;0.50;;;18.90;81.00;;;;;;5084810;28;20183;-71
2023/10/26 04:01:07;;;;;;;0.40;0.40;;;18.80;80.80;;;;;;5100748;28;20185;-72
2023/10/26 04:03:33;;;;;;;0.50;0.50;;;18.90;81.00;;;;;;5086072;28;20231;-71
2023/10/26 04:05:59;;;;;;;0.60;0.60;;;18.80;80.80;;;;;;5096800;28;20216;-72
2023/10/26 04:08:24;;;;;;;0.40;0.40;;;18.80;80.70;;;;;;5091811;28;20217;-71
2023/10/26 04:10:50;;;;;;;0.70;0.70;;;18.90;80.80;;;;;;5078480;28;20237;-71
2023/10/26 04:13:16;;;;;;;0.52;0.52;;;18.90;80.80;;;;;;5094839;28;20188;-72
2023/10/26 04:15:41;;;;;;;0.65;0.50;;;18.80;80.60;;;;;;5063378;28;20290;-71
2023/10/26 04:18:07;;;;;;;0.40;0.40;;;18.90;80.70;;;;;;5078840;28;20191;-71
2023/10/26 04:20:33;;;;;;;0.47;0.47;;;18.90;80.80;;;;;;5098915;28;20187;-71
2023/10/26 04:22:59;;;;;;;0.65;0.60;;;18.80;80.60;;;;;;5096682;28;20192;-71
2023/10/26 04:25:28;;;;;;;0.98;0.88;;;18.90;80.70;;;;;;5098553;28;20239;-71
2023/10/26 04:27:57;;;;;;;2.53;1.40;;;18.80;80.50;;;;;;5084822;28;20242;-71
2023/10/26 04:30:23;;;;;;;1.83;1.48;;;18.80;80.60;;;;;;5091099;28;20195;-71
2023/10/26 04:32:50;;;;;;;1.17;0.90;;;18.80;80.40;;;;;;5084136;28;20176;-71
2023/10/26 04:35:16;;;;;;;1.25;1.00;;;18.90;80.80;;;;;;5092852;28;20243;-70
2023/10/26 04:37:41;;;;;;;1.55;1.45;;;18.90;80.80;;;;;;5078221;28;20197;-71
2023/10/26 04:40:08;;;;;;;1.42;1.33;;;18.90;80.70;;;;;;5097118;28;20181;-71
2023/10/26 04:42:34;;;;;;;1.55;1.20;;;18.90;80.70;;;;;;5080195;28;20210;-71
2023/10/26 04:44:59;;;;;;;1.30;1.20;;;18.80;80.70;;;;;;5082882;28;20668;-72
2023/10/26 04:47:25;;;;;;;1.45;1.35;;;18.90;80.60;;;;;;5093208;28;20208;-71
2023/10/26 04:49:51;;;;;;;1.30;1.20;;;18.90;80.70;;;;;;5083140;28;20211;-72
2023/10/26 04:52:19;;;;;;;1.33;1.23;;;18.80;80.60;;;;;;5085824;28;20725;-71
2023/10/26 04:54:44;;;;;;;1.27;1.17;;;18.90;80.70;;;;;;5092539;28;20400;-71
2023/10/26 04:57:10;;;;;;;1.45;1.30;;;18.80;80.60;;;;;;5103220;28;20259;-71
2023/10/26 04:59:36;;;;;;;2.33;1.40;;;18.80;80.50;;;;;;5088804;28;20260;-71
2023/10/26 05:02:01;;;;;;;1.35;1.25;;;18.80;80.40;;;;;;5088580;28;20192;-71
2023/10/26 05:04:27;;;;;;;1.63;1.23;;;18.80;80.60;;;;;;5085279;28;20216;-71
2023/10/26 05:06:54;;;;;;;1.67;1.25;;;18.80;80.50;;;;;;5093991;28;20257;-71
2023/10/26 05:09:19;;;;;;;1.40;1.30;;;18.80;80.40;;;;;;5094394;28;20247;-71
2023/10/26 05:11:45;;;;;;;2.03;1.70;;;18.80;80.50;;;;;;5094113;28;20269;-71
2023/10/26 05:14:11;;;;;;;1.73;1.30;;;18.80;80.40;;;;;;5088467;28;20264;-71
2023/10/26 05:16:37;;;;;;;1.70;1.40;;;18.80;80.50;;;;;;5090529;28;20188;-72
2023/10/26 05:19:03;;;;;;;1.50;1.40;;;18.80;80.40;;;;;;5080987;28;20188;-72
2023/10/26 05:21:28;;;;;;;1.60;1.50;;;18.80;80.40;;;;;;5077289;28;20192;-71
2023/10/26 05:23:54;;;;;;;1.90;1.42;;;18.80;80.40;;;;;;5100682;28;20256;-71
2023/10/26 05:26:20;;;;;;;1.50;1.15;;;18.80;80.30;;;;;;5105701;28;20188;-71
2023/10/26 05:28:47;;;;;;;1.83;1.52;;;18.90;80.50;;;;;;5099429;28;20200;-71
2023/10/26 05:31:13;;;;;;;1.40;1.30;;;18.80;80.50;;;;;;5111924;28;20188;-71
2023/10/26 05:33:38;;;;;;;2.25;1.52;;;18.80;80.40;;;;;;5079858;28;20187;-71
2023/10/26 05:36:04;;;;;;;1.73;1.50;;;18.80;80.50;;;;;;5111249;28;20260;-72
2023/10/26 05:38:30;;;;;;;1.63;1.52;;;18.80;80.40;;;;;;5093238;28;20202;-72
2023/10/26 05:40:56;;;;;;;1.45;1.35;;;18.80;80.40;;;;;;5066549;28;20184;-72
2023/10/26 05:43:23;;;;;;;2.17;1.50;;;18.80;80.40;;;;;;5075159;28;20191;-72
2023/10/26 05:45:49;;;;;;;1.60;1.50;;;18.80;80.40;;;;;;5079526;28;20733;-70
2023/10/26 05:48:16;;;;;;;1.55;1.45;;;18.80;80.40;;;;;;5084925;28;20233;-72
2023/10/26 05:50:42;;;;;;;1.63;1.52;;;18.80;80.40;;;;;;5087433;28;20195;-71
2023/10/26 05:53:10;;;;;;;2.08;1.55;;;18.80;80.40;;;;;;5073451;28;20181;-71
2023/10/26 05:55:36;;;;;;;1.50;1.40;;;18.80;80.40;;;;;;5093305;28;20210;-72
2023/10/26 05:58:03;;;;;;;1.90;1.70;;;18.80;80.40;;;;;;5079776;28;20613;-72
2023/10/26 06:00:29;;;;;;;1.60;1.45;;;18.80;80.40;;;;;;5092523;28;20252;-72
2023/10/26 06:02:55;;;;;;;1.52;1.42;;;18.80;80.40;;;;;;5088308;28;20196;-71
2023/10/26 06:05:21;;;;;;;2.30;1.60;;;18.80;80.30;;;;;;5071346;28;20212;-72
2023/10/26 06:07:46;;;;;;;1.65;1.55;;;18.80;80.30;;;;;;5083585;28;20357;-72
2023/10/26 06:10:12;;;;;;;1.80;1.70;;;18.80;80.30;;;;;;5066697;28;20180;-72
2023/10/26 06:12:38;;;;;;;1.70;1.60;;;18.80;80.30;;;;;;5098339;28;20210;-72
2023/10/26 06:15:04;;;;;;;2.25;1.35;;;18.80;80.20;;;;;;5086206;28;20208;-71
2023/10/26 06:17:30;;;;;;;1.50;1.38;;;18.80;80.30;;;;;;5105096;28;20213;-71
2023/10/26 06:19:56;;;;;;;1.65;1.55;;;18.80;80.30;;;;;;5097703;28;20271;-71
2023/10/26 06:22:22;;;;;;;1.65;1.55;;;18.80;80.30;;;;;;5087966;28;20193;-71
2023/10/26 06:24:48;;;;;;;2.72;1.92;;;18.80;80.30;;;;;;5090895;28;20200;-71
2023/10/26 06:27:13;;;;;;;1.85;1.75;;;18.80;80.30;;;;;;5084566;28;20288;-71
2023/10/26 06:29:42;;;;;;;1.83;1.60;;;18.80;80.40;;;;;;5105905;28;20180;-71
2023/10/26 06:32:08;;;;;;;2.35;1.88;;;18.80;80.40;;;;;;5088212;28;20200;-71
2023/10/26 06:34:34;;;;;;;2.08;1.88;;;18.90;80.40;;;;;;5088372;28;20188;-71
2023/10/26 06:36:59;;;;;;;1.95;1.75;;;18.90;80.50;;;;;;5115102;28;20195;-71
2023/10/26 06:39:25;;;;;;;1.70;1.60;;;18.80;80.40;;;;;;5115106;28;20298;-71
2023/10/26 06:41:51;;;;;;;1.88;1.77;;;18.90;80.50;;;;;;5092441;28;20180;-71
2023/10/26 06:44:17;;;;;;;1.58;1.45;;;18.90;81.30;;;;;;5087988;28;20213;-71
2023/10/26 06:46:42;;;;;;;1.58;1.48;;;18.90;80.50;;;;;;5114809;28;20184;-71
2023/10/26 06:49:08;;;;;;;2.30;1.50;;;18.80;80.40;;;;;;5092668;28;20220;-71
2023/10/26 06:51:34;;;;;;;1.70;1.60;;;18.90;80.50;;;;;;5090393;28;20271;-71
2023/10/26 06:54:00;;;;;;;2.30;1.60;;;18.90;80.50;;;;;;5075339;28;20185;-71
2023/10/26 06:56:25;;;;;;;1.75;1.60;;;18.90;80.50;;;;;;5092393;28;20189;-71
2023/10/26 06:58:51;;;;;;;2.63;1.70;;;18.80;80.40;;;;;;5096760;28;20184;-70
2023/10/26 07:01:17;;;;;;;1.50;1.40;;;18.90;80.50;;;;;;5088081;28;20314;-70
2023/10/26 07:03:42;;;;;;;1.67;1.50;;;18.90;80.50;;;;;;5092145;28;20223;-70
2023/10/26 07:06:08;;;;;;;3.15;1.40;;;18.90;80.50;;;;;;5096455;28;20325;-71
2023/10/26 07:08:34;;;;;;;1.40;1.30;;;18.90;80.50;;;;;;5089291;28;20205;-71
2023/10/26 07:11:05;;;;;;;1.60;1.50;;;18.90;80.50;;;;;;5095096;28;20232;-71
2023/10/26 07:13:31;;;;;;;2.17;1.20;;;18.90;80.60;;;;;;5083950;28;20189;-71
2023/10/26 07:16:02;;;;;;;1.38;1.27;;;18.90;80.60;;;;;;5096011;28;20199;-70
2023/10/26 07:18:29;;;;;;;1.80;1.70;;;18.80;80.50;;;;;;5088557;28;20193;-70
2023/10/26 07:20:55;;;;;;;1.50;1.40;;;18.90;80.60;;;;;;5094641;28;20188;-70
2023/10/26 07:23:20;;;;;;;1.20;1.10;;;18.90;80.60;;;;;;5091207;28;20291;-71
2023/10/26 07:25:47;;;;;;;1.58;1.48;;;18.90;80.60;;;;;;5079545;28;20235;-70
2023/10/26 07:28:12;;;;;;;1.23;1.13;;;18.90;80.70;;;;;;5091296;28;20212;-71
2023/10/26 07:30:43;;;;;;;2.22;1.40;;;18.90;80.70;;;;;;5112315;28;20198;-71
2023/10/26 07:33:09;;;;;;;1.70;1.13;;;18.90;80.70;;;;;;5113918;28;20542;-70
2023/10/26 07:35:40;;;;;;;1.35;1.20;;;18.90;80.70;;;;;;5063744;28;20205;-71
2023/10/26 07:38:10;;;;;;;1.58;1.48;;;18.90;80.70;;;;;;5081779;28;20282;-71
2023/10/26 07:40:48;;;;;;;2.03;1.25;;;18.90;80.70;;;;;;5113922;28;20184;-70
2023/10/26 07:43:14;;;;;;;1.45;1.35;;;18.90;80.70;;;;;;5095809;28;20233;-71
2023/10/26 07:45:40;;;;;;;1.20;1.10;;;18.90;80.80;;;;;;5110137;28;20275;-71
2023/10/26 07:48:06;;;;;;;1.33;1.23;;;18.90;80.80;;;;;;5094582;28;20208;-71
2023/10/26 07:50:31;;;;;;;1.50;1.40;;;18.90;80.80;;;;;;5095356;28;20188;-71
2023/10/26 07:52:57;;;;;;;2.38;1.00;;;18.90;80.80;;;;;;5085008;28;20180;-71
2023/10/26 07:55:23;;;;;;;1.20;1.10;;;18.90;80.80;;;;;;5095102;28;20747;-71
2023/10/26 07:57:48;;;;;;;1.20;1.10;;;18.90;80.80;;;;;;5092039;28;20351;-70
2023/10/26 08:00:14;;;;;;;0.98;0.85;;;18.90;80.80;;;;;;5103371;28;20177;-70
2023/10/26 08:02:40;;;;;;;1.30;1.20;;;18.90;80.80;;;;;;5109866;28;20183;-71
2023/10/26 08:05:08;;;;;;;1.40;1.30;;;18.90;80.90;;;;;;5098868;28;20299;-71
2023/10/26 08:07:34;;;;;;;1.20;1.10;;;18.90;80.90;;;;;;5088313;28;20208;-71
2023/10/26 08:09:59;;;;;;;1.27;1.17;;;18.90;80.90;;;;;;5113755;28;20187;-71
2023/10/26 08:12:25;;;;;;;1.20;1.10;;;18.90;80.90;;;;;;5110285;28;20184;-71
2023/10/26 08:14:52;;;;;;;1.20;1.10;;;18.90;80.90;;;;;;5086479;28;20215;-71
2023/10/26 08:17:18;;;;;;;1.10;1.00;;;18.90;80.90;;;;;;5091925;28;20234;-70
2023/10/26 08:19:44;;;;;;;0.95;0.93;;;18.90;81.00;;;;;;5098382;28;20181;-71
2023/10/26 08:22:10;;;;;;;1.00;0.95;;;18.90;81.70;;;;;;5069849;28;20238;-70
2023/10/26 08:24:36;;;;;;;1.02;1.00;;;18.90;81.00;;;;;;5074378;28;20551;-71
2023/10/26 08:27:03;;;;;;;1.40;1.30;;;18.90;81.00;;;;;;5085431;28;20200;-71
2023/10/26 08:29:29;;;;;;;1.15;1.00;;;18.90;81.00;;;;;;5111930;28;20184;-71
2023/10/26 08:31:56;;;;;;;1.20;1.10;;;18.90;81.00;;;;;;5077484;28;20271;-71
2023/10/26 08:34:22;;;;;;;1.10;1.00;;;18.90;81.00;;;;;;5089627;28;20314;-71
2023/10/26 08:36:47;;;;;;;0.98;0.98;;;18.90;81.00;;;;;;5109997;28;20200;-71
2023/10/26 08:39:13;;;;;;;1.10;1.00;;;18.90;81.00;;;;;;5086006;28;20181;-71
2023/10/26 08:41:48;;;;;;;0.90;0.90;;;19.00;81.10;;;;;;5075275;28;20191;-71
2023/10/26 08:44:15;;;;;;;0.75;0.75;;;19.00;81.10;;;;;;5110024;28;20210;-71
2023/10/26 08:46:44;;;;;;;0.93;0.90;;;18.90;81.00;;;;;;5089190;28;20180;-71
2023/10/26 08:49:12;;;;;;;1.20;1.10;;;18.90;81.00;;;;;;5112754;28;20181;-71
2023/10/26 08:51:38;;;;;;;0.82;0.80;;;18.90;81.00;;;;;;5072377;28;20200;-71
2023/10/26 08:54:05;;;;;;;1.05;1.00;;;18.90;81.00;;;;;;5094081;28;20226;-70
2023/10/26 08:56:31;;;;;;;0.90;0.88;;;19.00;81.10;;;;;;5075236;28;20196;-71
2023/10/26 08:58:59;;;;;;;1.00;0.90;;;19.00;81.20;;;;;;5100984;28;20263;-71
2023/10/26 09:01:25;;;;;;;1.92;0.95;;;19.00;81.20;;;;;;5089854;28;20184;-71
2023/10/26 09:03:51;;;;;;;0.80;0.80;;;19.00;81.20;;;;;;5079622;28;20191;-71
2023/10/26 09:06:17;;;;;;;0.70;0.70;;;19.00;81.20;;;;;;5107197;28;20205;-70
2023/10/26 09:08:59;;;;;;;0.95;0.95;;;18.90;81.10;;;;;;5083691;28;20226;-71
2023/10/26 09:11:25;;;;;;;0.80;0.80;;;19.00;81.30;;;;;;5102223;28;20187;-71
2023/10/26 09:13:52;;;;;;;1.30;0.98;;;19.00;81.30;;;;;;5112120;28;20180;-70
2023/10/26 09:16:33;;;;;;;0.95;0.95;;;19.00;81.30;;;;;;5112033;28;20238;-71
2023/10/26 09:18:59;;;;;;;1.05;0.95;;;19.00;81.30;;;;;;5072478;28;20212;-71
2023/10/26 09:21:25;;;;;;;1.05;0.95;;;18.90;81.20;;;;;;5075411;28;20310;-71
2023/10/26 09:23:50;;;;;;;1.00;1.00;;;19.00;81.30;;;;;;5091635;28;20207;-71
2023/10/26 09:26:16;;;;;;;0.95;0.80;;;19.00;81.30;;;;;;5090843;28;20212;-71
2023/10/26 09:28:53;;;;;;;1.00;1.00;;;19.00;81.30;;;;;;5094005;28;20340;-71
2023/10/26 09:31:19;;;;;;;0.80;0.80;;;19.00;81.40;;;;;;5079467;28;20646;-71
2023/10/26 09:33:47;;;;;;;0.90;0.90;;;19.00;81.30;;;;;;5111812;28;20194;-71
2023/10/26 09:36:16;;;;;;;1.02;0.95;;;19.00;81.40;;;;;;5070749;28;20640;-71
2023/10/26 09:38:42;;;;;;;0.90;0.90;;;19.00;81.40;;;;;;5088140;28;20180;-71
2023/10/26 09:41:15;;;;;;;0.77;0.70;;;19.00;81.40;;;;;;5090607;28;20245;-71
2023/10/26 09:43:42;;;;;;;0.70;0.70;;;19.00;81.50;;;;;;5104969;28;20188;-71
2023/10/26 09:46:12;;;;;;;0.80;0.80;;;19.00;81.40;;;;;;5102113;28;20212;-70
2023/10/26 09:48:38;;;;;;;0.80;0.80;;;19.00;81.50;;;;;;5090678;28;20220;-71
2023/10/26 09:51:04;;;;;;;0.70;0.70;;;19.00;81.50;;;;;;5093972;28;20188;-71
2023/10/26 09:53:40;;;;;;;0.80;0.80;;;19.00;81.40;;;;;;5094894;28;20207;-71
2023/10/26 09:56:13;;;;;;;0.80;0.80;;;19.00;81.40;;;;;;5104971;28;20232;-71
2023/10/26 09:58:41;;;;;;;1.00;1.00;;;19.00;81.40;;;;;;5089325;28;20221;-70
2023/10/26 10:01:33;;;;;;;0.75;0.75;;;19.00;81.50;;;;;;5104241;28;20197;-70
2023/10/26 10:04:00;;;;;;;0.70;0.70;;;19.00;81.40;;;;;;5085252;28;20192;-71
2023/10/26 10:06:50;;;;;;;0.85;0.85;;;19.00;81.40;;;;;;5087770;28;20192;-71
2023/10/26 10:09:24;;;;;;;0.60;0.60;;;19.00;81.40;;;;;;5074890;28;20201;-71
2023/10/26 10:12:13;;;;;;;0.77;0.77;;;19.00;81.40;;;;;;5077589;28;20188;-71
2023/10/26 10:14:48;;;;;;;0.80;0.80;;;19.00;81.40;;;;;;5093934;28;20260;-71
2023/10/26 10:17:46;;;;;;;0.80;0.80;;;19.00;81.40;;;;;;5105411;28;20194;-71
2023/10/26 10:20:17;;;;;;;0.70;0.70;;;19.00;81.40;;;;;;5081575;28;20250;-70
2023/10/26 10:22:50;;;;;;;1.00;0.70;;;19.10;81.50;;;;;;5089977;28;20225;-71
2023/10/26 10:25:18;;;;;;;1.08;0.98;;;19.10;81.50;;;;;;5115256;28;20315;-71
2023/10/26 10:27:49;;;;;;;0.85;0.85;;;19.10;81.60;;;;;;5077230;28;20208;-71
2023/10/26 10:30:21;;;;;;;0.80;0.80;;;19.10;81.50;;;;;;5092625;28;20618;-71
2023/10/26 10:32:48;;;;;;;1.02;0.82;;;19.10;81.50;;;;;;5088899;28;20196;-71
2023/10/26 10:35:41;;;;;;;0.50;0.50;;;19.10;81.50;;;;;;5105268;28;20211;-71
2023/10/26 10:38:16;;;;;;;0.70;0.70;;;19.10;81.50;;;;;;5086859;28;20188;-71
2023/10/26 10:40:54;;;;;;;2.05;0.80;;;19.10;81.50;;;;;;5107413;28;20195;-71
2023/10/26 10:43:36;;;;;;;0.70;0.70;;;19.10;81.60;;;;;;5113331;28;20642;-71
2023/10/26 10:46:26;;;;;;;0.70;0.70;;;19.10;81.60;;;;;;5096064;28;20222;-71
2023/10/26 10:49:05;;;;;;;0.60;0.60;;;19.10;81.60;;;;;;5089259;28;20253;-70
2023/10/26 10:51:38;;;;;;;0.70;0.70;;;19.10;81.60;;;;;;5093176;28;20180;-70
2023/10/26 10:54:07;;;;;;;0.70;0.70;;;19.10;81.60;;;;;;5083733;28;20216;-71
2023/10/26 10:56:37;;;;;;;0.70;0.70;;;19.10;81.60;;;;;;5113239;28;20199;-70
2023/10/26 10:59:27;;;;;;;0.63;0.63;;;19.10;81.60;;;;;;5087518;28;20189;-71
2023/10/26 11:02:11;;;;;;;0.50;0.50;;;19.10;81.70;;;;;;5083687;28;20188;-70
2023/10/26 11:04:59;;;;;;;0.95;0.70;;;19.20;81.80;;;;;;5074392;28;20215;-70
2023/10/26 11:07:26;;;;;;;0.70;0.70;;;19.20;81.80;;;;;;5093095;28;20204;-70
2023/10/26 11:10:00;;;;;;;0.80;0.80;;;19.10;81.70;;;;;;5082409;28;20180;-69
2023/10/26 11:12:27;;;;;;;0.60;0.60;;;19.10;82.50;;;;;;5096338;28;20188;-70
2023/10/26 11:14:54;;;;;;;0.85;0.85;;;19.20;81.80;;;;;;5113948;28;20224;-70
2023/10/26 11:17:23;;;;;;;0.80;0.80;;;19.20;81.80;;;;;;5110123;28;20200;-69
2023/10/26 11:19:50;;;;;;;0.70;0.70;;;19.20;81.90;;;;;;5088195;28;20184;-70
2023/10/26 11:22:18;;;;;;;0.70;0.70;;;19.20;81.90;;;;;;5094759;28;20203;-71
2023/10/26 11:24:45;;;;;;;0.40;0.40;;;19.20;81.90;;;;;;5095016;28;20207;-70
2023/10/26 11:27:17;;;;;;;0.82;0.80;;;19.20;81.90;;;;;;5070579;28;20232;-69
2023/10/26 11:29:44;;;;;;;0.70;0.70;;;19.20;81.90;;;;;;5108097;28;20181;-70
2023/10/26 11:32:21;;;;;;;0.60;0.60;;;19.20;82.00;;;;;;5091844;28;20184;-70
2023/10/26 11:35:10;;;;;;;0.93;0.55;;;19.20;82.00;;;;;;5088263;28;20219;-70
2023/10/26 11:37:48;;;;;;;0.55;0.55;;;19.20;82.10;;;;;;5082347;28;20269;-71
2023/10/26 11:40:16;;;;;;;0.80;0.80;;;19.20;82.00;;;;;;5090410;28;20216;-70
2023/10/26 11:42:52;;;;;;;1.27;0.68;;;19.20;82.10;;;;;;5092110;28;20192;-70
2023/10/26 11:45:25;;;;;;;0.70;0.70;;;19.20;82.10;;;;;;5086552;28;20223;-70
2023/10/26 11:47:54;;;;;;;0.68;0.60;;;19.20;82.10;;;;;;5090122;28;20209;-71
2023/10/26 11:50:30;;;;;;;0.60;0.60;;;19.20;82.10;;;;;;5092534;28;20218;-70
2023/10/26 11:53:01;;;;;;;0.80;0.60;;;19.20;82.10;;;;;;5095322;28;20244;-69
2023/10/26 11:55:33;;;;;;;0.60;0.50;;;19.30;82.20;;;;;;5086993;28;20222;-70
2023/10/26 11:58:01;;;;;;;0.63;0.50;;;19.20;82.10;;;;;;5095708;28;20192;-70
2023/10/26 12:00:29;;;;;;;1.60;0.80;;;19.20;82.10;;;;;;5095064;28;20561;-70
2023/10/26 12:02:59;;;;;;;0.60;0.50;;;19.20;82.20;;;;;;5095165;28;20180;-70
2023/10/26 12:05:26;;;;;;;0.70;0.70;;;19.20;82.10;;;;;;5095217;28;20224;-70
2023/10/26 12:07:54;;;;;;;0.70;0.70;;;19.20;82.20;;;;;;5086658;28;20210;-69
2023/10/26 12:10:23;;;;;;;1.30;0.77;;;19.30;82.30;;;;;;5086616;28;20188;-70
2023/10/26 12:12:50;;;;;;;0.82;0.70;;;19.30;82.30;;;;;;5084593;28;20188;-70
2023/10/26 12:15:16;;;;;;;1.15;0.90;;;19.30;82.30;;;;;;5085892;28;20234;-70
2023/10/26 12:17:42;;;;;;;0.70;0.50;;;19.20;82.30;;;;;;5075378;28;20231;-68
2023/10/26 12:20:08;;;;;;;1.35;1.08;;;19.20;82.30;;;;;;5113364;28;20192;-69
2023/10/26 12:22:35;;;;;;;1.40;0.60;;;19.20;82.30;;;;;;5078474;28;20189;-69
2023/10/26 12:25:04;;;;;;;1.48;0.70;;;19.20;82.30;;;;;;5079090;28;20212;-70
2023/10/26 12:27:31;;;;;;;0.80;0.70;;;19.20;82.30;;;;;;5107098;28;20216;-69
2023/10/26 12:29:56;;;;;;;0.85;0.60;;;19.20;82.30;;;;;;5086300;28;20229;-69
2023/10/26 12:32:23;;;;;;;0.98;0.80;;;19.20;82.30;;;;;;5094447;28;20180;-69
2023/10/26 12:34:50;;;;;;;0.90;0.70;;;19.20;82.30;;;;;;5066727;28;20222;-70
2023/10/26 12:37:16;;;;;;;1.35;0.60;;;19.20;82.30;;;;;;5088136;28;20194;-70
2023/10/26 12:39:41;;;;;;;1.05;0.70;;;19.20;82.30;;;;;;5083424;28;20193;-70
2023/10/26 12:42:07;;;;;;;1.58;0.98;;;19.30;82.50;;;;;;5073492;28;20219;-70
2023/10/26 12:44:33;;;;;;;2.22;0.80;;;19.20;82.30;;;;;;5069106;28;20258;-71
2023/10/26 12:46:59;;;;;;;1.00;0.90;;;19.30;82.40;;;;;;5106889;28;20189;-69
2023/10/26 12:49:25;;;;;;;2.10;0.98;;;19.20;82.40;;;;;;5083765;28;20195;-70
2023/10/26 12:51:51;;;;;;;1.30;0.68;;;19.20;82.40;;;;;;5072696;28;20212;-70